Terminal Aerodrome Forecast
Issued by NWS Tulsa, OK

Home | Current Version | Previous Version | Text Only | Print | Product List | Glossary On
Versions: 1 2 3 4 5 6 7 8 9 10 11 12 13 14 15 16
223
FTUS44 KTSA 221740
TAFTUL
TAF
KTUL 221740Z 2218/2318 17010KT P6SM SCT090 BKN120
     FM222300 VRB06KT P6SM VCTS SCT040CB BKN080
      TEMPO 2223/2301 5SM -TSRA BKN030CB
     FM230400 VRB04KT P6SM VCSH SCT035 BKN045
     FM230900 31006KT 4SM BR OVC012
     FM231600 34010KT P6SM BKN025=

USA.gov is the U.S. government's official web portal to all federal, state and local government web resources and services.